Het weer levert geen direct gevaar op.    Er zijn geen waarschuwingen afgegeven.


Onweer radar Meer informatie blitzortung!


Regen radar Meer informatie rain snow radar


Bezoek onze andere website:

Template documentation
and downloads

And another site

Forum Leuven-template

EUWEATHER.EU

Verwachtingen Meteociel


U vindt ons ook hier:

Het Weer Aktueel

UK Metoffice

European Weather Network

WeatherCloud

Weather Underground

Benelux Weer Netwerk

AWEKAS

WeatherlinkIP

HAMweather, WeatherForYou, PWS Weather

Wetterpage 24

Wetter.com



METAR rapporten vliegvelden

   
EBAW - Antwerp
Gewijzigd: 20-06-2018 22:20
Licht bewolkt  
Licht bewolkt  
   Wind: Westen 7.4 km/h
Wind: Westen 7.4 km/h
Temperatuur: 22°C
Dauwpunt: 15°C
Vochtigheid: 65%
Barometer: 1018 hPa
Bewolking: Licht bewolkt
Zicht: meer dan 10 km
Bewolking: Licht bewolkt 4500 ft
EBAW 202020Z 26004KT 9999 FEW045 22/15 Q1018 NOSIG
EBLG - Li├Ęge
Gewijzigd: 20-06-2018 22:20
Helder  
Helder  
   Wind: Westen 7.4 km/h
Wind: Westen 7.4 km/h
Temperatuur: 20°C
Dauwpunt: 14°C
Vochtigheid: 69%
Barometer: 1019 hPa
Zicht: meer dan 10 km
Bewolking: Helder
EBLG 202020Z 28004KT CAVOK 20/14 Q1019 NOSIG
EBCV - Mons/Bergen
Gewijzigd: 20-06-2018 22:25
Helder  
Helder  
   Wind: Westen 9.3 km/h
Wind: Westen 9.3 km/h
Temperatuur: 20°C
Dauwpunt: 15°C
Vochtigheid: 73%
Barometer: 1019 hPa
Bewolking: Helder
Zicht: meer dan 10 km
Bewolking: Helder
EBCV 202025Z AUTO 26005KT 9999 NCD 20/15 Q1019 BLU
EHBK - Maastricht
Gewijzigd: 20-06-2018 22:25
Gedeeltelijk bewolkt  
Gedeeltelijk bewolkt  
   Wind: WNW 7.4 km/h
Wind: WNW 7.4 km/h
Temperatuur: 21°C
Dauwpunt: 14°C
Vochtigheid: 64%
Barometer: 1018 hPa
Bewolking: Gedeeltelijk bewolkt
Zicht: meer dan 10 km
Bewolking: Gedeeltelijk bewolkt
EHBK 202025Z AUTO 29004KT 240V340 9999 NSC 21/14 Q1018 NOSIG
ELLX - Luxemburg
Gewijzigd: 20-06-2018 22:20
Helder  
Helder  
   Wind: WNW 9.3 km/h
Wind: WNW 9.3 km/h
Temperatuur: 22°C
Dauwpunt: 13°C
Vochtigheid: 57%
Barometer: 1019 hPa
Zicht: meer dan 10 km
Bewolking: Helder
ELLX 202020Z 29005KT CAVOK 22/13 Q1019 NOSIG
EBOS - Oostende
Gewijzigd: 20-06-2018 22:20
Licht bewolkt  
Licht bewolkt  
   Wind: ZW 16.7 km/h
Wind: ZW 16.7 km/h
Temperatuur: 18°C
Dauwpunt: 14°C
Vochtigheid: 78%
Barometer: 1019 hPa
Bewolking: Licht bewolkt
Zicht: meer dan 10 km
Bewolking: Licht bewolkt 3500 ft
EBOS 202020Z 22009KT 9999 FEW035 18/14 Q1019 NOSIG

Script ontwikkeld door  Saratoga-weather.org Aangepast voor de template door  Weerstation Leuven

Apparatuur in gebruik:

Weerstation
Davis VP2

Weerprogramma
Meteobridge

Weercomputer
Asus WL -330N3G

Webleverancier
Onecom

Davis VP2

Meteobridge

Asus WL -330N3G

Onecom